Impacts METAR Board
IDs:

KATL - Atlanta/Hartsfield I, GA, US

Updated at: 0000 UTC 31 May 2020
Potential Impact None Slight Moderate High
Time 30/12Z 30/13Z 30/14Z 30/15Z 30/16Z 30/17Z 30/18Z 30/19Z 30/20Z 30/21Z 30/22Z 30/23Z 31/00Z
Temp70 74 78 80 82 83 85 85 86 86 85 84 82
Dewpt64 65 65 63 62 63 62 59 61 61 60 60 60
Altim30.07 30.07 30.07 30.07 30.07 30.06 30.05 30.03 30.02 30.01 30.00 29.99 30.01
VIS10 10 10 10 10 10 10 10 10 10 10 10 10
CIG-- -- -- -- -- -- -- -- -- -- -- -- --
CoverCLRCLRCLRFEWSCTSCTSCTSCTSCTSCTSCTSCTSCT
FltCatVFRVFRVFRVFRVFRVFRVFRVFRVFRVFRVFRVFRVFR
WX--------------------------
WDir320340330330310300300320300290290320330
WSpd8 6 8 9 6 7 9 8 10 11 10 10 10
WGst-- -- -- -- -- -- 16 17 -- 18 -- -- --
Raw hourly METARs
KATL 301152Z 32008KT 10SM CLR 21/18 A3007 RMK AO2 SLP173 70005 T02110178 10211 20194 53010
KATL 301252Z 34006KT 10SM CLR 23/18 A3007 RMK AO2 SLP175 T02330183
KATL 301352Z 33008KT 10SM CLR 26/18 A3007 RMK AO2 SLP174 T02560183
KATL 301452Z 33009KT 10SM FEW037 27/17 A3007 RMK AO2 SLP174 T02670172 51002
KATL 301552Z 31006KT 10SM SCT041 28/17 A3007 RMK AO2 SLP171 T02780167
KATL 301652Z 30007KT 10SM SCT043 28/17 A3006 RMK AO2 SLP170 T02830172
KATL 301752Z 30009G16KT 10SM SCT047 29/17 A3005 RMK AO2 SLP165 T02940167 10294 20211 58009
KATL 301852Z 32008G17KT 10SM SCT060 29/15 A3003 RMK AO2 SLP160 T02940150
KATL 301952Z 30010KT 10SM SCT060 30/16 A3002 RMK AO2 SLP155 T03000161
KATL 302052Z 29011G18KT 10SM SCT060 30/16 A3001 RMK AO2 SLP151 T03000161 56013
KATL 302152Z 29010KT 10SM SCT060 SCT070 SCT250 29/16 A3000 RMK AO2 SLP148 T02940156
KATL 302252Z 32010KT 10SM SCT055 SCT250 29/16 A2999 RMK AO2 SLP148 T02890156
KATL 302352Z 33010KT 10SM SCT055 SCT250 28/16 A3001 RMK AO2 SLP154 T02780156 10300 20278 53002



Page loaded:  00:48 UTC  |   05:48 PM Pacific  |   06:48 PM Mountain  |   07:48 PM Central  |   08:48 PM Eastern

 

ADVISORIES

FORECASTS

FORECASTS

OBSERVATIONS

USER TOOLS

ABOUT US